Time;durP1;ratioP1;P1;durP2;ratioP2;P2;SDS_P1;SDS_P2;PMS_P1;PMS_P2;Temp;Humidity;BMP_temperature;BMP_pressure;BME280_temperature;BME280_humidity;BME280_pressure;Samples;Min_cycle;Max_cycle;Signal;HPM_P1;HPM_P2
2023/06/24 03:21:08;;;;;;;;;;;;;;;17.12;71.17;100706.91;1083130;54;19954;-75
2023/06/24 03:22:09;;;;;;;;;;;;;;;17.02;71.29;100706.25;1082598;47;19947;-74
2023/06/24 03:23:13;;;;;;;;;;;;;;;16.85;71.92;100710.78;1082335;54;19950;-75
2023/06/24 03:24:14;;;;;;;;;;;;;;;16.63;72.94;100709.59;1082352;54;20057;-74
2023/06/24 03:25:19;;;;;;;;;;;;;;;16.62;72.95;100714.16;1082330;47;19947;-75
2023/06/24 03:26:22;;;;;;;;;;;;;;;16.63;73.08;100713.13;1082584;51;19947;-74
2023/06/24 03:27:25;;;;;;;;;;;;;;;16.57;73.16;100713.81;1082398;47;20081;-74
2023/06/24 03:28:27;;;;;;;;;;;;;;;16.49;73.29;100709.25;1082495;47;19947;-77
2023/06/24 03:29:41;;;;;;;;;;;;;;;16.45;73.85;100720.53;1082634;47;19970;-75
2023/06/24 03:30:46;;;;;;;;;;;;;;;16.45;73.48;100715.13;1082546;47;19954;-76
2023/06/24 03:31:54;;;;;;;;;;;;;;;16.46;73.95;100715.00;1083624;39;20342;-76
2023/06/24 03:32:57;;;;;;;;;;;;;;;16.50;74.03;100718.19;1082656;47;19946;-77
2023/06/24 03:34:01;;;;;;;;;;;;;;;16.55;74.01;100715.81;1082610;54;19950;-76
2023/06/24 03:35:02;;;;;;;;;;;;;;;16.53;73.75;100710.59;1082485;54;19947;-74
2023/06/24 03:36:09;;;;;;;;;;;;;;;16.59;72.87;100714.50;1082324;48;20564;-74
2023/06/24 03:37:12;;;;;;;;;;;;;;;16.62;73.08;100719.56;1082530;47;20494;-74
2023/06/24 03:38:20;;;;;;;;;;;;;;;16.68;72.90;100716.19;1082668;54;19947;-75
2023/06/24 03:39:29;;;;;;;;;;;;;;;16.75;72.21;100718.19;1083041;39;20357;-75
2023/06/24 03:40:36;;;;;;;;;;;;;;;16.79;72.00;100720.38;1083130;54;20045;-75
2023/06/24 03:41:46;;;;;;;;;;;;;;;16.85;71.66;100724.28;1083409;39;20358;-76
2023/06/24 03:42:56;;;;;;;;;;;;;;;16.87;71.95;100719.56;1082941;54;19950;-77
2023/06/24 03:44:04;;;;;;;;;;;;;;;16.93;71.59;100731.53;1082855;54;19950;-76
2023/06/24 03:45:13;;;;;;;;;;;;;;;16.94;71.48;100717.88;1083136;54;20014;-75
2023/06/24 03:46:25;;;;;;;;;;;;;;;16.92;71.87;100722.56;1083307;54;20446;-74
2023/06/24 03:47:33;;;;;;;;;;;;;;;16.93;71.78;100727.00;1083383;54;19950;-74
2023/06/24 03:48:42;;;;;;;;;;;;;;;16.92;72.11;100721.75;1083435;54;19950;-75
2023/06/24 03:49:49;;;;;;;;;;;;;;;16.84;72.46;100730.69;1083199;54;19954;-74
2023/06/24 03:50:59;;;;;;;;;;;;;;;16.79;72.36;100728.50;1083350;54;19970;-75
2023/06/24 03:52:09;;;;;;;;;;;;;;;16.78;72.58;100728.66;1083011;54;20524;-75
2023/06/24 03:53:19;;;;;;;;;;;;;;;16.82;72.22;100728.16;1083478;54;19946;-74
2023/06/24 03:54:26;;;;;;;;;;;;;;;16.85;72.11;100732.38;1083371;54;19950;-74
2023/06/24 03:55:38;;;;;;;;;;;;;;;16.85;72.20;100726.97;1083677;54;20041;-74
2023/06/24 03:56:46;;;;;;;;;;;;;;;16.83;72.25;100737.09;1083408;54;19946;-74
2023/06/24 03:57:56;;;;;;;;;;;;;;;16.79;72.82;100733.88;1083052;54;20037;-75
2023/06/24 03:59:03;;;;;;;;;;;;;;;16.84;72.82;100738.78;1083066;54;19962;-76
2023/06/24 04:00:16;;;;;;;;;;;;;;;16.80;72.91;100732.88;1082862;46;19977;-75
2023/06/24 04:01:24;;;;;;;;;;;;;;;16.83;72.74;100740.66;1083020;54;19950;-74
2023/06/24 04:02:33;;;;;;;;;;;;;;;16.88;72.32;100731.19;1082484;54;19950;-75
2023/06/24 04:03:40;;;;;;;;;;;;;;;16.93;72.06;100740.50;1083126;54;19950;-75
2023/06/24 04:04:52;;;;;;;;;;;;;;;16.97;71.91;100733.75;1083062;54;20042;-75
2023/06/24 04:05:58;;;;;;;;;;;;;;;16.92;72.79;100744.16;1083135;54;19951;-74
2023/06/24 04:07:08;;;;;;;;;;;;;;;16.94;72.66;100741.34;1083188;54;19946;-74
2023/06/24 04:08:18;;;;;;;;;;;;;;;16.96;72.50;100745.56;1083194;54;20386;-74
2023/06/24 04:09:28;;;;;;;;;;;;;;;16.86;72.41;100749.44;1082838;54;19946;-74
2023/06/24 04:10:35;;;;;;;;;;;;;;;16.72;72.36;100749.06;1082796;54;19950;-75
2023/06/24 04:11:45;;;;;;;;;;;;;;;16.63;72.75;100747.38;1083167;54;19950;-75
2023/06/24 04:12:52;;;;;;;;;;;;;;;16.67;72.60;100752.28;1082681;54;19951;-75
2023/06/24 04:14:02;;;;;;;;;;;;;;;16.73;71.97;100753.47;1082690;54;19958;-76
2023/06/24 04:15:10;;;;;;;;;;;;;;;16.74;72.57;100751.59;1082951;54;20069;-75
2023/06/24 04:16:21;;;;;;;;;;;;;;;16.75;73.05;100758.69;1083091;54;19951;-75
2023/06/24 04:17:27;;;;;;;;;;;;;;;16.76;72.49;100754.97;1082852;54;19950;-76
2023/06/24 04:18:39;;;;;;;;;;;;;;;16.67;71.64;100763.06;1082936;54;19950;-76
2023/06/24 04:19:46;;;;;;;;;;;;;;;16.60;71.71;100758.50;1082904;54;20637;-75
2023/06/24 05:32:33;;;;;;;;;;;;;;;18.20;64.51;100777.69;1083609;39;20354;-75
2023/06/24 05:33:36;;;;;;;;;;;;;;;18.23;64.38;100780.00;1083151;54;20065;-75
2023/06/24 05:34:40;;;;;;;;;;;;;;;18.35;64.48;100776.91;1083119;54;19950;-75
2023/06/24 05:35:42;;;;;;;;;;;;;;;18.39;64.34;100779.06;1083288;39;20244;-76
2023/06/24 05:36:46;;;;;;;;;;;;;;;18.39;64.35;100789.06;1082830;54;19998;-77
2023/06/24 05:37:46;;;;;;;;;;;;;;;18.45;63.84;100774.81;1082633;54;19947;-76
2023/06/24 05:38:50;;;;;;;;;;;;;;;18.50;64.00;100779.69;1083242;54;19950;-77
2023/06/24 05:39:51;;;;;;;;;;;;;;;18.51;63.47;100774.13;1083417;54;19946;-77
2023/06/24 05:40:54;;;;;;;;;;;;;;;18.49;63.70;100794.25;1083565;54;19953;-77
2023/06/24 05:41:55;;;;;;;;;;;;;;;18.46;63.67;100781.91;1083009;46;19946;-74
2023/06/24 05:42:58;;;;;;;;;;;;;;;18.46;64.08;100784.63;1082723;54;19970;-75
2023/06/24 05:44:03;;;;;;;;;;;;;;;18.50;63.65;100785.97;1083246;54;19980;-75
2023/06/24 05:45:08;;;;;;;;;;;;;;;18.41;63.27;100789.75;1082786;54;20355;-76
2023/06/24 05:46:09;;;;;;;;;;;;;;;18.43;62.96;100784.97;1083361;39;20414;-76
2023/06/24 05:47:12;;;;;;;;;;;;;;;18.55;62.66;100778.13;1082854;54;19970;-76
2023/06/24 05:48:15;;;;;;;;;;;;;;;18.63;62.57;100781.81;1083180;54;19947;-76
2023/06/24 05:49:19;;;;;;;;;;;;;;;18.66;62.40;100778.75;1083095;54;20398;-76
2023/06/24 05:50:19;;;;;;;;;;;;;;;18.71;62.13;100784.44;1083087;54;19950;-76
2023/06/24 05:51:23;;;;;;;;;;;;;;;18.70;62.00;100780.91;1083215;54;20002;-76
2023/06/24 05:52:23;;;;;;;;;;;;;;;18.73;61.83;100779.69;1083197;54;20045;-76
2023/06/24 05:53:27;;;;;;;;;;;;;;;18.82;61.99;100788.63;1083194;54;19954;-77
2023/06/24 05:54:28;;;;;;;;;;;;;;;18.92;61.47;100780.22;1083076;54;19951;-77
2023/06/24 05:55:31;;;;;;;;;;;;;;;18.94;61.08;100775.50;1083800;39;20373;-77
2023/06/24 05:56:32;;;;;;;;;;;;;;;18.96;60.43;100784.31;1082943;54;19954;-78
2023/06/24 05:57:36;;;;;;;;;;;;;;;19.05;60.25;100777.78;1083456;54;19960;-78
2023/06/24 05:58:37;;;;;;;;;;;;;;;19.11;59.73;100776.22;1083342;54;19954;-77
2023/06/24 05:59:40;;;;;;;;;;;;;;;19.19;59.83;100781.56;1083462;54;19950;-75
2023/06/24 06:00:41;;;;;;;;;;;;;;;19.28;60.15;100782.31;1083380;54;19946;-77
2023/06/24 06:01:45;;;;;;;;;;;;;;;19.31;59.49;100781.94;1083404;54;19947;-77
2023/06/24 06:02:46;;;;;;;;;;;;;;;19.40;59.34;100783.56;1083417;47;19950;-77
2023/06/24 06:03:52;;;;;;;;;;;;;;;19.44;59.39;100776.75;1083721;54;19958;-77
2023/06/24 06:04:53;;;;;;;;;;;;;;;19.52;58.70;100772.25;1083882;54;20093;-75
2023/06/24 06:05:56;;;;;;;;;;;;;;;19.54;58.66;100778.34;1084346;54;19950;-79
2023/06/24 06:06:59;;;;;;;;;;;;;;;19.57;58.21;100775.25;1084381;54;19950;-76
2023/06/24 06:08:00;;;;;;;;;;;;;;;19.63;57.72;100779.94;1084664;54;19947;-77
2023/06/24 06:09:04;;;;;;;;;;;;;;;19.65;57.22;100775.13;1084826;39;20349;-77
2023/06/24 06:10:05;;;;;;;;;;;;;;;19.67;56.47;100775.81;1083725;54;20046;-75
2023/06/24 06:11:08;;;;;;;;;;;;;;;19.69;56.15;100773.75;1083520;39;20368;-76
2023/06/24 06:12:09;;;;;;;;;;;;;;;19.72;56.29;100777.94;1083065;39;20377;-75
2023/06/24 06:13:13;;;;;;;;;;;;;;;19.70;55.89;100772.72;1082731;54;19969;-76
2023/06/24 06:14:14;;;;;;;;;;;;;;;19.74;56.12;100774.03;1083073;50;19953;-77
2023/06/24 06:15:17;;;;;;;;;;;;;;;19.76;55.59;100774.69;1084277;54;19946;-76
2023/06/24 06:16:28;;;;;;;;;;;;;;;;;;;;;
2023/06/24 07:01:18;;;;;;;;;;;;;;;21.57;51.74;100748.47;1086859;54;19978;-83
2023/06/24 07:02:21;;;;;;;;;;;;;;;21.82;51.74;100748.03;1087647;54;19933;-85
2023/06/24 07:32:34;;;;;;;;;;;;;;;23.22;47.17;100724.81;1088154;54;19938;-87
2023/06/24 07:41:03;;;;;;;;;;;;;;;23.71;46.35;100729.94;1087523;47;19946;-86
2023/06/24 07:43:08;;;;;;;;;;;;;;;23.67;45.91;100729.53;1088675;46;19934;-86
2023/06/24 07:45:17;;;;;;;;;;;;;;;23.75;45.76;100726.56;1083748;54;20741;-87
2023/06/24 07:47:23;;;;;;;;;;;;;;;23.97;45.69;100732.59;1074423;46;21084;31
2023/06/24 07:48:24;;;;;;;;;;;;;;;24.06;45.37;100732.34;1088138;46;19950;-85
2023/06/24 07:49:27;;;;;;;;;;;;;;;24.05;45.01;100726.03;1087943;47;19927;-83
2023/06/24 07:50:28;;;;;;;;;;;;;;;24.17;45.22;100728.09;1087897;47;19963;-86
2023/06/24 07:52:33;;;;;;;;;;;;;;;24.33;44.54;100727.56;1088971;54;19946;-85
2023/06/24 07:53:44;;;;;;;;;;;;;;;24.27;44.26;100728.47;1071065;47;20789;31
2023/06/24 07:54:48;;;;;;;;;;;;;;;24.36;43.86;100720.81;1087566;47;19963;-84
2023/06/24 07:59:50;;;;;;;;;;;;;;;24.44;43.67;100718.69;1077053;54;19942;-86
2023/06/24 08:00:55;;;;;;;;;;;;;;;24.54;43.56;100717.34;1088035;46;19939;-86
2023/06/24 08:01:58;;;;;;;;;;;;;;;24.60;43.04;100720.03;1087806;54;20694;-85
2023/06/24 08:02:59;;;;;;;;;;;;;;;24.79;43.02;100722.00;1087655;47;19939;-86
2023/06/24 08:04:03;;;;;;;;;;;;;;;24.88;42.31;100707.00;1087450;47;19988;-86
2023/06/24 08:08:53;;;;;;;;;;;;;;;25.04;42.16;100709.16;1088129;54;19939;-86
2023/06/24 08:09:58;;;;;;;;;;;;;;;25.10;42.05;100714.81;1087766;46;20038;-87
2023/06/24 08:10:59;;;;;;;;;;;;;;;24.94;42.25;100711.56;1087782;54;19942;-86
2023/06/24 08:13:04;;;;;;;;;;;;;;;25.40;41.65;100709.47;1087917;46;19943;-84
2023/06/24 08:14:04;;;;;;;;;;;;;;;25.44;41.21;100715.31;1087670;47;19938;-84
2023/06/24 08:15:09;;;;;;;;;;;;;;;25.20;41.00;100704.19;1087686;47;19929;-84
2023/06/24 08:17:17;;;;;;;;;;;;;;;25.53;40.54;100709.34;1087799;54;19957;-82
2023/06/24 08:18:18;;;;;;;;;;;;;;;25.62;40.65;100701.63;1087746;54;20076;-84
2023/06/24 08:19:22;;;;;;;;;;;;;;;25.45;40.33;100708.78;1087433;47;19962;-86
2023/06/24 08:20:23;;;;;;;;;;;;;;;25.45;40.73;100703.31;1087383;47;19942;-81
2023/06/24 08:21:27;;;;;;;;;;;;;;;25.54;40.57;100701.94;1087370;47;19945;-84
2023/06/24 08:22:30;;;;;;;;;;;;;;;25.73;40.24;100704.66;1087473;46;19938;-85
2023/06/24 08:23:36;;;;;;;;;;;;;;;25.53;40.33;100697.53;1087144;47;19923;-84
2023/06/24 08:24:38;;;;;;;;;;;;;;;25.72;40.07;100705.72;1087277;47;19954;-82
2023/06/24 08:25:44;;;;;;;;;;;;;;;25.91;39.82;100698.34;1088015;46;19991;-84
2023/06/24 08:27:52;;;;;;;;;;;;;;;26.20;39.46;100704.91;1087772;54;19951;-84
2023/06/24 08:28:53;;;;;;;;;;;;;;;26.29;39.49;100699.94;1087931;54;19954;-84
2023/06/24 08:29:57;;;;;;;;;;;;;;;26.36;39.27;100699.81;1087421;46;19939;-85
2023/06/24 08:30:57;;;;;;;;;;;;;;;26.47;39.13;100690.81;1087374;47;19939;-84
2023/06/24 08:44:00;;;;;;;;;;;;;;;27.45;37.25;100693.13;1070668;54;19927;31
2023/06/24 08:45:01;;;;;;;;;;;;;;;27.62;37.10;100687.75;1087336;47;20046;-82
2023/06/24 08:46:04;;;;;;;;;;;;;;;27.70;36.87;100692.00;1087238;47;19964;-83
2023/06/24 08:47:05;;;;;;;;;;;;;;;27.79;36.95;100689.72;1087246;46;19938;-84
2023/06/24 08:48:09;;;;;;;;;;;;;;;27.33;36.80;100692.28;1087462;46;19931;-85
2023/06/24 08:49:13;;;;;;;;;;;;;;;27.61;36.83;100685.22;1088161;39;20449;-86
2023/06/24 08:51:27;;;;;;;;;;;;;;;27.73;36.39;100683.28;1088013;54;19931;-84
2023/06/24 08:52:30;;;;;;;;;;;;;;;27.90;35.61;100686.09;1088171;54;19942;-85
2023/06/24 08:53:34;;;;;;;;;;;;;;;27.91;35.74;100687.75;1087497;46;19939;-83
2023/06/24 08:54:38;;;;;;;;;;;;;;;28.07;35.41;100690.78;1087122;46;20005;-84
2023/06/24 08:55:40;;;;;;;;;;;;;;;28.21;35.44;100688.59;1087153;47;19961;-85
2023/06/24 08:56:44;;;;;;;;;;;;;;;28.27;34.47;100690.34;1087728;46;19938;-84
2023/06/24 08:57:45;;;;;;;;;;;;;;;28.00;35.69;100689.03;1087343;46;19971;-84
2023/06/24 08:58:49;;;;;;;;;;;;;;;27.98;35.34;100693.09;1087365;54;19942;-83
2023/06/24 08:59:52;;;;;;;;;;;;;;;28.06;35.50;100687.19;1087052;47;19945;-84
2023/06/24 09:00:56;;;;;;;;;;;;;;;28.03;35.28;100682.22;1087187;47;19939;-82
2023/06/24 09:01:57;;;;;;;;;;;;;;;28.01;34.86;100682.44;1087284;54;19942;-84
2023/06/24 09:03:01;;;;;;;;;;;;;;;28.02;35.00;100684.09;1087251;47;19946;-84
2023/06/24 09:04:25;;;;;;;;;;;;;;;28.08;34.84;100682.31;1087232;54;19967;-82
2023/06/24 09:05:26;;;;;;;;;;;;;;;28.14;34.82;100686.00;1086938;54;20048;-83
2023/06/24 09:06:30;;;;;;;;;;;;;;;28.12;34.69;100678.00;1087303;47;19945;-83
2023/06/24 09:07:33;;;;;;;;;;;;;;;28.27;34.53;100680.22;1087092;47;19939;-83
2023/06/24 09:08:39;;;;;;;;;;;;;;;28.23;34.74;100690.00;1087219;54;19942;-83
2023/06/24 09:09:43;;;;;;;;;;;;;;;28.29;34.52;100685.44;1087114;47;19998;-82
2023/06/24 09:10:46;;;;;;;;;;;;;;;27.90;34.30;100683.34;1087402;54;19949;-84
2023/06/24 09:11:54;;;;;;;;;;;;;;;27.97;34.32;100681.28;1092342;39;20788;-85
2023/06/24 09:12:57;;;;;;;;;;;;;;;28.35;34.06;100680.88;1087356;54;19949;-82
2023/06/24 09:13:58;;;;;;;;;;;;;;;28.42;33.63;100679.66;1087522;54;19943;-83
2023/06/24 09:15:05;;;;;;;;;;;;;;;28.42;34.11;100674.16;1087087;54;21173;-83
2023/06/24 09:16:15;;;;;;;;;;;;;;;28.58;34.02;100669.72;1087107;54;19942;-85
2023/06/24 09:17:35;;;;;;;;;;;;;;;28.58;33.36;100675.22;1087065;47;19979;-85
2023/06/24 09:18:36;;;;;;;;;;;;;;;28.73;33.99;100669.16;1087194;54;19943;-85
2023/06/24 09:20:45;;;;;;;;;;;;;;;28.94;33.10;100666.72;1087866;54;19941;-85
2023/06/24 09:21:46;;;;;;;;;;;;;;;28.93;33.42;100665.03;1087698;54;19994;-83
2023/06/24 09:22:49;;;;;;;;;;;;;;;29.08;33.35;100661.69;1087671;54;19926;-85
2023/06/24 09:23:52;;;;;;;;;;;;;;;28.55;33.11;100666.63;1088151;54;20007;-85
2023/06/24 09:24:56;;;;;;;;;;;;;;;28.39;33.42;100660.88;1087482;47;19938;-85
2023/06/24 09:25:58;;;;;;;;;;;;;;;28.07;33.63;100674.31;1087289;47;19961;-85
2023/06/24 09:27:01;;;;;;;;;;;;;;;28.39;33.50;100663.63;1087266;47;20065;-86
2023/06/24 09:28:02;;;;;;;;;;;;;;;28.55;32.96;100659.22;1087324;54;19949;-85
2023/06/24 09:29:08;;;;;;;;;;;;;;;28.70;32.21;100664.16;1087261;46;19973;-84
2023/06/24 09:30:22;;;;;;;;;;;;;;;28.72;32.83;100659.22;1087179;46;19990;-85
2023/06/24 09:31:26;;;;;;;;;;;;;;;28.86;32.19;100664.41;1087281;46;19962;-83
2023/06/24 09:32:29;;;;;;;;;;;;;;;28.61;32.34;100657.41;1087279;46;19950;-85
2023/06/24 09:33:34;;;;;;;;;;;;;;;28.61;32.53;100662.91;1087113;47;19942;-85
2023/06/24 09:34:35;;;;;;;;;;;;;;;28.92;32.65;100657.88;1086944;47;20036;-85
2023/06/24 09:35:39;;;;;;;;;;;;;;;29.05;32.28;100654.78;1086989;54;20030;-85
2023/06/24 09:36:41;;;;;;;;;;;;;;;29.19;31.99;100648.91;1086932;47;19938;-86
2023/06/24 09:37:45;;;;;;;;;;;;;;;29.39;31.56;100651.94;1087198;54;19954;-84
2023/06/24 09:38:46;;;;;;;;;;;;;;;29.29;30.96;100648.19;1087132;54;19967;-83
2023/06/24 09:39:49;;;;;;;;;;;;;;;29.30;30.42;100647.94;1087335;47;19939;-85
2023/06/24 09:45:44;;;;;;;;;;;;;;;28.45;30.16;100637.06;1086793;54;19943;-84
2023/06/24 09:46:45;;;;;;;;;;;;;;;28.77;30.02;100640.06;1087123;47;20035;-82
2023/06/24 09:50:14;;;;;;;;;;;;;;;28.89;29.59;100630.88;1087469;47;19943;-84
2023/06/24 09:51:30;;;;;;;;;;;;;;;29.35;29.10;100634.28;1087257;54;19943;-82
2023/06/24 09:53:38;;;;;;;;;;;;;;;29.61;28.60;100628.25;1085251;54;19938;31
2023/06/24 09:54:42;;;;;;;;;;;;;;;29.78;28.33;100636.41;1078021;47;20769;-83
2023/06/24 09:56:50;;;;;;;;;;;;;;;28.88;29.24;100624.53;1087082;54;19941;-84
2023/06/24 09:57:53;;;;;;;;;;;;;;;28.35;30.02;100637.72;1087586;54;20678;-84
2023/06/24 09:59:07;;;;;;;;;;;;;;;28.61;29.78;100630.72;1087758;54;19974;-83
2023/06/24 10:00:30;;;;;;;;;;;;;;;28.99;29.70;100625.53;1087222;46;20663;-83
2023/06/24 10:02:12;;;;;;;;;;;;;;;29.50;29.02;100624.53;1087626;46;20706;-86
2023/06/24 10:03:29;;;;;;;;;;;;;;;29.66;28.50;100628.31;1087828;54;19943;-84
2023/06/24 10:07:02;;;;;;;;;;;;;;;30.13;27.76;100618.63;1087145;47;19998;-84
2023/06/24 10:08:07;;;;;;;;;;;;;;;30.30;26.75;100622.06;1087566;47;19963;-84
2023/06/24 10:11:27;;;;;;;;;;;;;;;30.51;25.57;100613.97;1087489;54;19931;-83
2023/06/24 10:27:36;;;;;;;;;;;;;;;30.00;28.25;100590.38;1086852;54;19973;-85
2023/06/24 10:28:54;;;;;;;;;;;;;;;29.76;28.40;100589.84;1087686;54;19959;-82
2023/06/24 10:30:10;;;;;;;;;;;;;;;29.91;28.43;100589.16;1087453;54;19943;-82
2023/06/24 10:31:14;;;;;;;;;;;;;;;30.25;28.15;100586.16;1086978;47;19939;-83
2023/06/24 10:32:22;;;;;;;;;;;;;;;29.91;28.62;100585.56;1087060;46;19938;-83
2023/06/24 10:33:31;;;;;;;;;;;;;;;29.61;29.38;100597.97;1086887;54;19968;-83
2023/06/24 10:34:45;;;;;;;;;;;;;;;30.04;28.62;100579.66;1087279;47;19964;-84
2023/06/24 10:35:52;;;;;;;;;;;;;;;30.26;28.22;100579.56;1087339;46;19950;-85
2023/06/24 10:37:04;;;;;;;;;;;;;;;30.51;27.01;100580.84;1086953;47;19939;-83
2023/06/24 10:38:13;;;;;;;;;;;;;;;30.01;28.12;100575.50;1086919;47;20864;-84
2023/06/24 10:39:30;;;;;;;;;;;;;;;29.58;28.68;100582.75;1086923;47;21105;-83
2023/06/24 10:40:43;;;;;;;;;;;;;;;29.49;28.52;100581.56;1086932;46;19938;-84
2023/06/24 10:41:49;;;;;;;;;;;;;;;29.44;28.40;100576.00;1087630;39;20673;-84
2023/06/24 10:43:06;;;;;;;;;;;;;;;29.37;28.41;100576.19;1087051;47;19976;-83
2023/06/24 10:46:40;;;;;;;;;;;;;;;30.03;27.56;100575.25;1086913;54;20884;-84
2023/06/24 10:47:46;;;;;;;;;;;;;;;30.17;27.35;100573.72;1087455;54;19973;-83
2023/06/24 10:48:58;;;;;;;;;;;;;;;30.22;27.24;100575.69;1086792;47;19963;-82
2023/06/24 10:50:26;;;;;;;;;;;;;;;30.59;26.39;100569.34;1086976;47;19938;-83
2023/06/24 10:52:47;;;;;;;;;;;;;;;30.68;26.36;100557.81;1086928;54;19949;-83
2023/06/24 10:53:50;;;;;;;;;;;;;;;31.01;25.59;100569.56;1087026;47;19947;-82
2023/06/24 10:55:01;;;;;;;;;;;;;;;31.11;25.38;100569.63;1086779;47;19994;-84
2023/06/24 10:56:44;;;;;;;;;;;;;;;30.75;24.73;100563.91;1086953;47;19938;-85
2023/06/24 11:01:15;;;;;;;;;;;;;;;30.99;24.20;100560.69;1070398;54;20724;31
2023/06/24 11:02:28;;;;;;;;;;;;;;;31.03;23.98;100551.63;1071774;47;19926;-85
2023/06/24 11:03:39;;;;;;;;;;;;;;;31.28;23.34;100553.66;1087357;47;19942;-83
2023/06/24 11:04:48;;;;;;;;;;;;;;;30.77;24.35;100553.44;1087099;54;19994;-83
2023/06/24 11:06:09;;;;;;;;;;;;;;;30.30;25.21;100544.88;1086946;47;20066;-83
2023/06/24 11:07:19;;;;;;;;;;;;;;;30.68;24.88;100547.59;1086884;47;19939;-82
2023/06/24 11:08:31;;;;;;;;;;;;;;;30.06;24.76;100549.91;1087123;47;19938;-83
2023/06/24 11:09:40;;;;;;;;;;;;;;;30.28;24.74;100548.97;1086977;47;20006;-83
2023/06/24 11:10:56;;;;;;;;;;;;;;;30.28;24.96;100538.78;1086851;47;20710;-84
2023/06/24 11:12:04;;;;;;;;;;;;;;;30.07;24.89;100535.06;1087005;47;19939;-81
2023/06/24 11:13:15;;;;;;;;;;;;;;;30.33;24.44;100533.28;1086908;54;19942;-81
2023/06/24 11:14:24;;;;;;;;;;;;;;;30.25;24.59;100536.53;1086952;47;19938;-83
2023/06/24 11:20:02;;;;;;;;;;;;;;;30.57;24.03;100530.16;1087196;47;19939;-85
2023/06/24 11:21:13;;;;;;;;;;;;;;;30.44;24.40;100522.31;1087248;54;19942;-85
2023/06/24 11:22:29;;;;;;;;;;;;;;;30.61;24.14;100528.53;1087093;47;19948;-83
2023/06/24 11:23:43;;;;;;;;;;;;;;;30.74;23.93;100520.88;1086869;47;19991;-84
2023/06/24 11:27:08;;;;;;;;;;;;;;;29.84;24.48;100530.69;1086875;54;20781;-84
2023/06/24 11:28:24;;;;;;;;;;;;;;;29.73;24.21;100525.09;1087684;54;19943;-86
2023/06/24 11:29:32;;;;;;;;;;;;;;;29.68;24.76;100518.69;1087033;47;20674;-82
2023/06/24 11:30:38;;;;;;;;;;;;;;;29.81;23.86;100521.00;1087007;47;19938;-84
2023/06/24 11:34:13;;;;;;;;;;;;;;;29.66;23.94;100513.44;1087063;54;19969;-86
2023/06/24 11:35:22;;;;;;;;;;;;;;;29.26;24.61;100514.69;1086822;47;19939;-82
2023/06/24 11:36:25;;;;;;;;;;;;;;;29.09;24.90;100514.75;1086785;54;19972;-81
2023/06/24 11:41:43;;;;;;;;;;;;;;;28.20;25.49;100522.88;1080172;47;19946;31
2023/06/24 11:43:17;;;;;;;;;;;;;;;27.83;25.92;100521.44;1087580;47;21054;-84
2023/06/24 11:48:54;;;;;;;;;;;;;;;28.32;24.92;100512.63;1070986;47;20886;31
2023/06/24 11:51:53;;;;;;;;;;;;;;;28.78;24.26;100506.97;1071006;54;20695;31
2023/06/24 11:54:45;;;;;;;;;;;;;;;28.67;23.76;100507.06;1087342;54;19943;-82
2023/06/24 11:58:12;;;;;;;;;;;;;;;28.79;24.27;100494.88;1087280;54;19958;-84
2023/06/24 11:59:26;;;;;;;;;;;;;;;28.58;24.83;100506.66;1087797;47;20022;-85
2023/06/24 12:00:34;;;;;;;;;;;;;;;28.61;24.85;100503.41;1087533;47;19990;-84
2023/06/24 12:09:52;;;;;;;;;;;;;;;;;;;;;
2023/06/24 12:17:07;;;;;;;;;;;;;;;28.77;25.23;100480.53;1070340;54;20941;31
2023/06/24 12:18:25;;;;;;;;;;;;;;;28.62;25.51;100472.06;1073046;47;21382;31
2023/06/24 12:20:49;;;;;;;;;;;;;;;28.66;25.22;100478.72;1087954;54;19951;-85
2023/06/24 12:23:28;;;;;;;;;;;;;;;28.15;25.88;100478.84;1085626;54;19938;-83
2023/06/24 12:27:22;;;;;;;;;;;;;;;28.49;25.35;100468.59;1079996;54;20637;31
2023/06/24 12:28:27;;;;;;;;;;;;;;;28.21;25.68;100469.56;1071757;46;20964;31
2023/06/24 12:30:39;;;;;;;;;;;;;;;28.16;25.52;100461.25;1087525;54;19975;-83
2023/06/24 12:32:59;;;;;;;;;;;;;;;28.37;25.65;100476.13;1070457;54;20849;31
2023/06/24 12:37:27;;;;;;;;;;;;;;;;;;;;;
2023/06/24 12:53:33;;;;;;;;;;;;;;;28.97;25.07;100445.25;1082301;47;19950;31
2023/06/24 12:55:52;;;;;;;;;;;;;;;28.62;24.92;100439.91;1084340;54;19933;-85
2023/06/24 12:58:27;;;;;;;;;;;;;;;28.05;25.49;100443.78;1087918;47;19923;-82
2023/06/24 13:00:46;;;;;;;;;;;;;;;27.94;25.30;100451.00;1087461;54;19941;-83
2023/06/24 13:03:13;;;;;;;;;;;;;;;28.28;24.98;100434.53;1080551;54;19953;-86
2023/06/24 13:04:30;;;;;;;;;;;;;;;28.32;25.29;100427.41;1087973;54;19943;-85
2023/06/24 13:06:53;;;;;;;;;;;;;;;28.23;24.61;100433.63;1085086;39;20910;-86
2023/06/24 13:09:30;;;;;;;;;;;;;;;28.43;25.05;100435.78;1083102;54;19962;-86
2023/06/24 13:12:10;;;;;;;;;;;;;;;28.14;23.51;100434.06;1083423;46;19933;-85
2023/06/24 13:13:28;;;;;;;;;;;;;;;28.24;23.78;100427.84;1087730;46;19962;-86
2023/06/24 13:15:46;;;;;;;;;;;;;;;28.39;22.80;100427.22;1087987;54;19946;-86
2023/06/24 13:17:01;;;;;;;;;;;;;;;28.24;22.86;100429.78;1079602;46;19979;-85
2023/06/24 13:18:19;;;;;;;;;;;;;;;28.28;23.04;100428.19;1082494;47;19943;-84
2023/06/24 13:19:39;;;;;;;;;;;;;;;28.12;22.84;100433.47;1078599;47;20973;31
2023/06/24 13:20:54;;;;;;;;;;;;;;;28.13;21.98;100426.03;1086430;54;19960;-86
2023/06/24 13:22:12;;;;;;;;;;;;;;;28.35;21.63;100428.81;1088035;46;19934;-84
2023/06/24 13:25:42;;;;;;;;;;;;;;;28.19;22.06;100433.28;1119833;31;21002;31
2023/06/24 13:28:11;;;;;;;;;;;;;;;28.47;22.15;100421.28;1076214;54;19930;31
2023/06/24 13:29:27;;;;;;;;;;;;;;;28.56;22.69;100429.94;1086339;54;19942;-84
2023/06/24 13:30:42;;;;;;;;;;;;;;;28.44;22.88;100426.47;1087457;46;19942;-87
2023/06/24 13:31:53;;;;;;;;;;;;;;;28.57;23.17;100419.75;1087432;54;19950;-86
2023/06/24 13:34:11;;;;;;;;;;;;;;;28.79;23.25;100417.00;1085596;54;19950;-85
2023/06/24 13:35:30;;;;;;;;;;;;;;;28.80;23.25;100413.19;1087647;47;19923;-85
2023/06/24 13:37:52;;;;;;;;;;;;;;;28.71;23.41;100410.06;1075381;54;20846;-86
2023/06/24 13:39:04;;;;;;;;;;;;;;;28.72;23.54;100411.69;1087357;47;19938;-85
2023/06/24 13:41:32;;;;;;;;;;;;;;;28.37;24.51;100415.66;1085251;39;21164;-85
2023/06/24 13:42:47;;;;;;;;;;;;;;;28.33;24.88;100414.50;1088223;54;19942;-84
2023/06/24 13:45:07;;;;;;;;;;;;;;;28.47;25.00;100410.28;1085732;54;19923;31
2023/06/24 13:46:23;;;;;;;;;;;;;;;28.55;25.10;100410.91;1087922;54;19942;-85
2023/06/24 13:48:45;;;;;;;;;;;;;;;28.27;25.89;100416.38;1070804;54;19939;31
2023/06/24 13:50:04;;;;;;;;;;;;;;;28.27;25.88;100410.88;1082989;46;19946;-85
2023/06/24 13:52:30;;;;;;;;;;;;;;;28.42;25.42;100413.00;1077701;54;19950;31
2023/06/24 13:53:42;;;;;;;;;;;;;;;28.57;25.11;100409.59;1082578;39;20869;31
2023/06/24 13:57:24;;;;;;;;;;;;;;;28.98;23.36;100398.25;1070216;54;21616;31
2023/06/24 13:58:31;;;;;;;;;;;;;;;29.06;23.70;100395.03;1077005;46;20157;31
2023/06/24 13:59:45;;;;;;;;;;;;;;;29.07;23.94;100391.19;1071485;47;19969;31
2023/06/24 14:03:23;;;;;;;;;;;;;;;28.95;23.41;100388.56;1071012;54;19930;31
2023/06/24 14:05:36;;;;;;;;;;;;;;;28.74;24.41;100393.03;1075019;54;21904;31
2023/06/24 14:06:39;;;;;;;;;;;;;;;28.75;24.11;100389.19;1074557;47;20213;31
2023/06/24 14:08:46;;;;;;;;;;;;;;;28.76;24.63;100392.78;1085712;54;20053;31
2023/06/24 14:09:51;;;;;;;;;;;;;;;29.05;24.57;100392.53;1074367;47;20025;-84
2023/06/24 14:11:59;;;;;;;;;;;;;;;29.67;23.93;100385.66;1071244;54;19943;31
2023/06/24 14:15:40;;;;;;;;;;;;;;;29.67;24.30;100388.41;1085973;54;19990;-84
2023/06/24 14:18:04;;;;;;;;;;;;;;;30.06;23.95;100372.69;1073885;54;20868;-85
2023/06/24 14:20:26;;;;;;;;;;;;;;;30.77;23.37;100371.38;1070784;54;20885;31
2023/06/24 14:21:31;;;;;;;;;;;;;;;30.87;23.23;100365.88;1080368;46;19927;-85
2023/06/24 14:22:40;;;;;;;;;;;;;;;30.79;23.46;100366.41;1081535;46;20014;-86
2023/06/24 14:23:42;;;;;;;;;;;;;;;30.95;23.43;100364.47;1077458;47;19946;31